sensor_id;sensor_type;location;lat;lon;timestamp;P1;durP1;ratioP1;P2;durP2;ratioP2
1296;SDS011;641;48.492;9.184;2024-02-04T00:01:39;95.20;;;33.80;;
1296;SDS011;641;48.492;9.184;2024-02-04T00:04:05;96.67;;;35.73;;
1296;SDS011;641;48.492;9.184;2024-02-04T00:06:30;95.10;;;33.00;;
1296;SDS011;641;48.492;9.184;2024-02-04T00:08:56;94.77;;;33.20;;
1296;SDS011;641;48.492;9.184;2024-02-04T00:11:22;94.60;;;32.17;;
1296;SDS011;641;48.492;9.184;2024-02-04T00:13:48;95.10;;;33.37;;
1296;SDS011;641;48.492;9.184;2024-02-04T00:16:13;94.87;;;33.43;;
1296;SDS011;641;48.492;9.184;2024-02-04T00:18:39;94.73;;;33.63;;
1296;SDS011;641;48.492;9.184;2024-02-04T00:21:05;94.73;;;32.30;;
1296;SDS011;641;48.492;9.184;2024-02-04T00:23:30;94.60;;;32.13;;
1296;SDS011;641;48.492;9.184;2024-02-04T00:25:56;95.27;;;32.60;;
1296;SDS011;641;48.492;9.184;2024-02-04T00:28:21;95.27;;;33.03;;
1296;SDS011;641;48.492;9.184;2024-02-04T00:30:47;94.77;;;32.27;;
1296;SDS011;641;48.492;9.184;2024-02-04T00:33:14;94.63;;;32.10;;
1296;SDS011;641;48.492;9.184;2024-02-04T00:35:40;95.17;;;32.30;;
1296;SDS011;641;48.492;9.184;2024-02-04T00:38:06;96.70;;;33.03;;
1296;SDS011;641;48.492;9.184;2024-02-04T00:40:33;95.30;;;33.30;;
1296;SDS011;641;48.492;9.184;2024-02-04T00:42:59;94.50;;;31.90;;
1296;SDS011;641;48.492;9.184;2024-02-04T00:45:25;94.57;;;32.70;;
1296;SDS011;641;48.492;9.184;2024-02-04T00:47:51;96.60;;;34.77;;
1296;SDS011;641;48.492;9.184;2024-02-04T00:50:16;96.90;;;33.07;;
1296;SDS011;641;48.492;9.184;2024-02-04T00:52:42;96.10;;;34.67;;
1296;SDS011;641;48.492;9.184;2024-02-04T00:55:07;96.30;;;33.23;;
1296;SDS011;641;48.492;9.184;2024-02-04T00:57:33;94.60;;;31.17;;
1296;SDS011;641;48.492;9.184;2024-02-04T00:59:59;94.97;;;32.23;;
1296;SDS011;641;48.492;9.184;2024-02-04T01:02:24;94.87;;;32.87;;
1296;SDS011;641;48.492;9.184;2024-02-04T01:04:50;95.07;;;32.73;;
1296;SDS011;641;48.492;9.184;2024-02-04T01:07:16;94.97;;;33.07;;
1296;SDS011;641;48.492;9.184;2024-02-04T01:09:42;96.17;;;33.17;;
1296;SDS011;641;48.492;9.184;2024-02-04T01:12:07;94.60;;;32.40;;
1296;SDS011;641;48.492;9.184;2024-02-04T01:14:33;95.43;;;33.53;;
1296;SDS011;641;48.492;9.184;2024-02-04T01:16:59;95.20;;;33.03;;
1296;SDS011;641;48.492;9.184;2024-02-04T01:19:24;94.60;;;32.90;;
1296;SDS011;641;48.492;9.184;2024-02-04T01:21:50;96.17;;;34.60;;
1296;SDS011;641;48.492;9.184;2024-02-04T01:24:16;94.40;;;32.03;;
1296;SDS011;641;48.492;9.184;2024-02-04T01:26:41;96.57;;;33.63;;
1296;SDS011;641;48.492;9.184;2024-02-04T01:29:07;95.57;;;33.97;;
1296;SDS011;641;48.492;9.184;2024-02-04T01:31:32;95.60;;;32.57;;
1296;SDS011;641;48.492;9.184;2024-02-04T01:33:58;95.17;;;33.33;;
1296;SDS011;641;48.492;9.184;2024-02-04T01:36:23;95.77;;;35.47;;
1296;SDS011;641;48.492;9.184;2024-02-04T01:38:49;94.90;;;33.53;;
1296;SDS011;641;48.492;9.184;2024-02-04T01:41:14;95.47;;;34.57;;
1296;SDS011;641;48.492;9.184;2024-02-04T01:43:40;96.60;;;34.43;;
1296;SDS011;641;48.492;9.184;2024-02-04T01:46:06;95.20;;;33.60;;
1296;SDS011;641;48.492;9.184;2024-02-04T01:48:32;94.83;;;33.90;;
1296;SDS011;641;48.492;9.184;2024-02-04T01:50:57;95.37;;;32.80;;
1296;SDS011;641;48.492;9.184;2024-02-04T01:53:26;95.50;;;32.67;;
1296;SDS011;641;48.492;9.184;2024-02-04T01:55:53;95.63;;;33.07;;
1296;SDS011;641;48.492;9.184;2024-02-04T01:58:20;96.37;;;35.43;;
1296;SDS011;641;48.492;9.184;2024-02-04T02:00:46;95.83;;;33.50;;
1296;SDS011;641;48.492;9.184;2024-02-04T02:03:13;94.80;;;33.37;;
1296;SDS011;641;48.492;9.184;2024-02-04T02:05:40;94.30;;;32.00;;
1296;SDS011;641;48.492;9.184;2024-02-04T02:08:06;96.77;;;36.83;;
1296;SDS011;641;48.492;9.184;2024-02-04T02:10:32;97.37;;;36.97;;
1296;SDS011;641;48.492;9.184;2024-02-04T02:13:05;99.27;;;43.30;;
1296;SDS011;641;48.492;9.184;2024-02-04T02:15:49;96.37;;;36.87;;
1296;SDS011;641;48.492;9.184;2024-02-04T02:18:27;1999.90;;;999.90;;
1296;SDS011;641;48.492;9.184;2024-02-04T02:26:26;97.20;;;37.27;;
1296;SDS011;641;48.492;9.184;2024-02-04T02:28:52;98.57;;;37.73;;
1296;SDS011;641;48.492;9.184;2024-02-04T02:31:18;96.63;;;37.33;;
1296;SDS011;641;48.492;9.184;2024-02-04T02:33:43;1365.97;;;679.57;;
1296;SDS011;641;48.492;9.184;2024-02-04T02:36:10;96.70;;;36.40;;
1296;SDS011;641;48.492;9.184;2024-02-04T02:41:40;1365.70;;;679.37;;
1296;SDS011;641;48.492;9.184;2024-02-04T02:44:09;95.70;;;33.13;;
1296;SDS011;641;48.492;9.184;2024-02-04T02:46:36;96.40;;;35.07;;
1296;SDS011;641;48.492;9.184;2024-02-04T02:49:02;97.70;;;39.13;;
1296;SDS011;641;48.492;9.184;2024-02-04T02:51:28;97.63;;;38.17;;
1296;SDS011;641;48.492;9.184;2024-02-04T02:53:53;96.57;;;36.13;;
1296;SDS011;641;48.492;9.184;2024-02-04T02:56:19;96.00;;;36.47;;
1296;SDS011;641;48.492;9.184;2024-02-04T02:58:44;95.67;;;36.03;;
1296;SDS011;641;48.492;9.184;2024-02-04T03:01:10;95.87;;;35.60;;
1296;SDS011;641;48.492;9.184;2024-02-04T03:03:35;96.37;;;37.70;;
1296;SDS011;641;48.492;9.184;2024-02-04T03:06:01;96.43;;;37.33;;
1296;SDS011;641;48.492;9.184;2024-02-04T03:08:26;99.17;;;43.20;;
1296;SDS011;641;48.492;9.184;2024-02-04T03:10:52;96.57;;;36.87;;
1296;SDS011;641;48.492;9.184;2024-02-04T03:13:17;1366.13;;;680.73;;
1296;SDS011;641;48.492;9.184;2024-02-04T03:15:43;1999.90;;;999.90;;
1296;SDS011;641;48.492;9.184;2024-02-04T03:18:10;95.70;;;34.30;;
1296;SDS011;641;48.492;9.184;2024-02-04T03:20:36;1365.67;;;678.83;;
1296;SDS011;641;48.492;9.184;2024-02-04T03:23:03;96.57;;;37.43;;
1296;SDS011;641;48.492;9.184;2024-02-04T03:25:28;96.80;;;38.53;;
1296;SDS011;641;48.492;9.184;2024-02-04T03:27:54;1365.87;;;679.47;;
1296;SDS011;641;48.492;9.184;2024-02-04T03:30:20;95.53;;;35.33;;
1296;SDS011;641;48.492;9.184;2024-02-04T03:32:45;1999.90;;;999.90;;
1296;SDS011;641;48.492;9.184;2024-02-04T03:35:11;96.33;;;36.50;;
1296;SDS011;641;48.492;9.184;2024-02-04T03:37:36;96.40;;;36.67;;
1296;SDS011;641;48.492;9.184;2024-02-04T03:40:02;96.67;;;37.30;;
1296;SDS011;641;48.492;9.184;2024-02-04T03:42:28;96.27;;;37.27;;
1296;SDS011;641;48.492;9.184;2024-02-04T03:44:53;97.00;;;36.13;;
1296;SDS011;641;48.492;9.184;2024-02-04T03:47:19;95.87;;;35.40;;
1296;SDS011;641;48.492;9.184;2024-02-04T03:49:44;97.07;;;39.10;;
1296;SDS011;641;48.492;9.184;2024-02-04T03:52:10;96.63;;;35.93;;
1296;SDS011;641;48.492;9.184;2024-02-04T03:54:35;96.07;;;35.00;;
1296;SDS011;641;48.492;9.184;2024-02-04T03:57:01;95.97;;;35.33;;
1296;SDS011;641;48.492;9.184;2024-02-04T03:59:26;95.10;;;34.97;;
1296;SDS011;641;48.492;9.184;2024-02-04T04:01:52;96.93;;;37.33;;
1296;SDS011;641;48.492;9.184;2024-02-04T04:04:22;96.47;;;34.63;;
1296;SDS011;641;48.492;9.184;2024-02-04T04:06:48;96.33;;;37.03;;
1296;SDS011;641;48.492;9.184;2024-02-04T04:09:14;95.97;;;33.57;;
1296;SDS011;641;48.492;9.184;2024-02-04T04:11:39;95.87;;;33.87;;
1296;SDS011;641;48.492;9.184;2024-02-04T04:14:05;96.77;;;35.63;;
1296;SDS011;641;48.492;9.184;2024-02-04T04:16:31;95.33;;;33.60;;
1296;SDS011;641;48.492;9.184;2024-02-04T04:18:56;107.27;;;53.43;;
1296;SDS011;641;48.492;9.184;2024-02-04T04:21:23;95.70;;;35.33;;
1296;SDS011;641;48.492;9.184;2024-02-04T04:23:49;95.57;;;36.00;;
1296;SDS011;641;48.492;9.184;2024-02-04T04:26:15;96.37;;;35.60;;
1296;SDS011;641;48.492;9.184;2024-02-04T04:28:40;97.07;;;35.33;;
1296;SDS011;641;48.492;9.184;2024-02-04T04:31:06;97.80;;;37.97;;
1296;SDS011;641;48.492;9.184;2024-02-04T04:33:31;96.07;;;36.47;;
1296;SDS011;641;48.492;9.184;2024-02-04T04:35:57;96.90;;;36.53;;
1296;SDS011;641;48.492;9.184;2024-02-04T04:38:22;97.00;;;36.17;;
1296;SDS011;641;48.492;9.184;2024-02-04T04:40:48;96.47;;;37.40;;
1296;SDS011;641;48.492;9.184;2024-02-04T04:43:13;1365.53;;;678.93;;
1296;SDS011;641;48.492;9.184;2024-02-04T04:45:40;95.93;;;34.97;;
1296;SDS011;641;48.492;9.184;2024-02-04T04:48:06;96.30;;;34.77;;
1296;SDS011;641;48.492;9.184;2024-02-04T04:50:34;95.70;;;35.77;;
1296;SDS011;641;48.492;9.184;2024-02-04T04:53:00;96.50;;;35.00;;
1296;SDS011;641;48.492;9.184;2024-02-04T04:55:26;97.53;;;39.83;;
1296;SDS011;641;48.492;9.184;2024-02-04T04:57:52;96.30;;;36.37;;
1296;SDS011;641;48.492;9.184;2024-02-04T05:00:17;95.57;;;34.97;;
1296;SDS011;641;48.492;9.184;2024-02-04T05:02:43;96.60;;;36.10;;
1296;SDS011;641;48.492;9.184;2024-02-04T05:05:12;95.87;;;35.97;;
1296;SDS011;641;48.492;9.184;2024-02-04T05:07:38;1365.67;;;679.10;;
1296;SDS011;641;48.492;9.184;2024-02-04T05:10:04;1999.90;;;999.90;;
1296;SDS011;641;48.492;9.184;2024-02-04T05:12:30;1365.87;;;679.40;;
1296;SDS011;641;48.492;9.184;2024-02-04T05:14:57;95.97;;;35.43;;
1296;SDS011;641;48.492;9.184;2024-02-04T05:17:22;1999.90;;;999.90;;
1296;SDS011;641;48.492;9.184;2024-02-04T05:19:48;105.77;;;50.30;;
1296;SDS011;641;48.492;9.184;2024-02-04T05:22:13;1999.90;;;999.90;;
1296;SDS011;641;48.492;9.184;2024-02-04T05:24:39;1999.90;;;999.90;;
1296;SDS011;641;48.492;9.184;2024-02-04T05:27:05;1366.03;;;679.77;;
1296;SDS011;641;48.492;9.184;2024-02-04T05:29:31;1999.90;;;999.90;;
1296;SDS011;641;48.492;9.184;2024-02-04T05:31:56;1999.90;;;999.90;;
1296;SDS011;641;48.492;9.184;2024-02-04T05:34:22;1999.90;;;999.90;;
1296;SDS011;641;48.492;9.184;2024-02-04T05:36:48;1999.90;;;999.90;;
1296;SDS011;641;48.492;9.184;2024-02-04T05:39:14;1999.90;;;999.90;;
1296;SDS011;641;48.492;9.184;2024-02-04T05:41:40;1999.90;;;999.90;;
1296;SDS011;641;48.492;9.184;2024-02-04T05:44:06;1999.90;;;999.90;;
1296;SDS011;641;48.492;9.184;2024-02-04T05:46:34;1999.90;;;999.90;;
1296;SDS011;641;48.492;9.184;2024-02-04T05:49:02;1999.90;;;999.90;;
1296;SDS011;641;48.492;9.184;2024-02-04T05:51:28;1999.90;;;999.90;;
1296;SDS011;641;48.492;9.184;2024-02-04T05:53:54;1999.90;;;999.90;;
1296;SDS011;641;48.492;9.184;2024-02-04T05:56:20;1365.87;;;679.43;;
1296;SDS011;641;48.492;9.184;2024-02-04T05:58:47;1365.50;;;678.53;;
1296;SDS011;641;48.492;9.184;2024-02-04T06:01:13;96.03;;;36.93;;
1296;SDS011;641;48.492;9.184;2024-02-04T06:03:39;96.77;;;35.33;;
1296;SDS011;641;48.492;9.184;2024-02-04T06:06:06;97.60;;;36.80;;
1296;SDS011;641;48.492;9.184;2024-02-04T06:08:32;96.23;;;36.10;;
1296;SDS011;641;48.492;9.184;2024-02-04T06:10:57;96.47;;;35.53;;
1296;SDS011;641;48.492;9.184;2024-02-04T06:13:23;96.20;;;34.37;;
1296;SDS011;641;48.492;9.184;2024-02-04T06:15:49;730.03;;;356.80;;
1296;SDS011;641;48.492;9.184;2024-02-04T06:18:14;95.50;;;35.80;;
1296;SDS011;641;48.492;9.184;2024-02-04T06:20:40;97.10;;;36.93;;
1296;SDS011;641;48.492;9.184;2024-02-04T06:23:06;95.27;;;34.93;;
1296;SDS011;641;48.492;9.184;2024-02-04T06:25:31;95.27;;;34.70;;
1296;SDS011;641;48.492;9.184;2024-02-04T06:27:57;1999.90;;;999.90;;
1296;SDS011;641;48.492;9.184;2024-02-04T06:30:22;96.17;;;35.23;;
1296;SDS011;641;48.492;9.184;2024-02-04T06:32:48;95.90;;;36.63;;
1296;SDS011;641;48.492;9.184;2024-02-04T06:35:14;95.47;;;34.57;;
1296;SDS011;641;48.492;9.184;2024-02-04T06:37:40;1365.63;;;678.93;;
1296;SDS011;641;48.492;9.184;2024-02-04T06:40:07;96.60;;;36.00;;
1296;SDS011;641;48.492;9.184;2024-02-04T06:42:34;95.20;;;34.53;;
1296;SDS011;641;48.492;9.184;2024-02-04T06:45:00;95.50;;;34.37;;
1296;SDS011;641;48.492;9.184;2024-02-04T06:47:25;96.60;;;37.20;;
1296;SDS011;641;48.492;9.184;2024-02-04T06:49:51;96.47;;;37.27;;
1296;SDS011;641;48.492;9.184;2024-02-04T06:52:16;1365.53;;;678.73;;
1296;SDS011;641;48.492;9.184;2024-02-04T06:54:42;1365.80;;;679.07;;
1296;SDS011;641;48.492;9.184;2024-02-04T06:57:08;1999.90;;;999.90;;
1296;SDS011;641;48.492;9.184;2024-02-04T06:59:34;1365.93;;;679.03;;
1296;SDS011;641;48.492;9.184;2024-02-04T07:01:59;1999.90;;;999.90;;
1296;SDS011;641;48.492;9.184;2024-02-04T07:04:25;1366.43;;;680.30;;
1296;SDS011;641;48.492;9.184;2024-02-04T07:06:50;1365.47;;;678.33;;
1296;SDS011;641;48.492;9.184;2024-02-04T07:09:16;1366.37;;;680.37;;
1296;SDS011;641;48.492;9.184;2024-02-04T07:11:42;1365.27;;;678.67;;
1296;SDS011;641;48.492;9.184;2024-02-04T07:14:08;95.10;;;33.53;;
1296;SDS011;641;48.492;9.184;2024-02-04T07:16:33;95.70;;;35.43;;
1296;SDS011;641;48.492;9.184;2024-02-04T07:18:59;95.50;;;36.43;;
1296;SDS011;641;48.492;9.184;2024-02-04T07:21:24;95.87;;;35.97;;
1296;SDS011;641;48.492;9.184;2024-02-04T07:23:50;97.07;;;36.63;;
1296;SDS011;641;48.492;9.184;2024-02-04T07:26:15;1365.73;;;678.60;;
1296;SDS011;641;48.492;9.184;2024-02-04T07:28:41;1365.53;;;678.47;;
1296;SDS011;641;48.492;9.184;2024-02-04T07:31:07;1365.50;;;678.23;;
1296;SDS011;641;48.492;9.184;2024-02-04T07:33:32;1365.90;;;678.67;;
1296;SDS011;641;48.492;9.184;2024-02-04T07:35:58;1365.50;;;678.33;;
1296;SDS011;641;48.492;9.184;2024-02-04T07:38:23;95.77;;;35.83;;
1296;SDS011;641;48.492;9.184;2024-02-04T07:40:49;95.77;;;35.03;;
1296;SDS011;641;48.492;9.184;2024-02-04T07:43:14;95.87;;;34.00;;
1296;SDS011;641;48.492;9.184;2024-02-04T07:45:40;96.47;;;33.63;;
1296;SDS011;641;48.492;9.184;2024-02-04T07:48:07;95.27;;;33.07;;
1296;SDS011;641;48.492;9.184;2024-02-04T07:50:34;96.07;;;33.73;;
1296;SDS011;641;48.492;9.184;2024-02-04T07:53:00;97.57;;;34.30;;
1296;SDS011;641;48.492;9.184;2024-02-04T07:55:25;106.40;;;52.00;;
1296;SDS011;641;48.492;9.184;2024-02-04T07:57:51;95.57;;;33.73;;
1296;SDS011;641;48.492;9.184;2024-02-04T08:00:16;96.77;;;33.33;;
1296;SDS011;641;48.492;9.184;2024-02-04T08:02:44;97.00;;;36.20;;
1296;SDS011;641;48.492;9.184;2024-02-04T08:05:10;95.53;;;34.47;;
1296;SDS011;641;48.492;9.184;2024-02-04T08:07:35;106.93;;;54.37;;
1296;SDS011;641;48.492;9.184;2024-02-04T08:10:01;95.37;;;34.60;;
1296;SDS011;641;48.492;9.184;2024-02-04T08:12:27;95.90;;;33.00;;
1296;SDS011;641;48.492;9.184;2024-02-04T08:14:52;96.70;;;33.83;;
1296;SDS011;641;48.492;9.184;2024-02-04T08:17:18;95.10;;;33.73;;
1296;SDS011;641;48.492;9.184;2024-02-04T08:19:43;94.47;;;33.07;;
1296;SDS011;641;48.492;9.184;2024-02-04T08:22:09;94.97;;;33.43;;
1296;SDS011;641;48.492;9.184;2024-02-04T08:24:34;94.80;;;33.80;;
1296;SDS011;641;48.492;9.184;2024-02-04T08:27:01;95.97;;;34.00;;
1296;SDS011;641;48.492;9.184;2024-02-04T08:29:26;99.10;;;36.07;;
1296;SDS011;641;48.492;9.184;2024-02-04T08:31:52;95.20;;;34.70;;
1296;SDS011;641;48.492;9.184;2024-02-04T08:34:18;96.70;;;36.67;;
1296;SDS011;641;48.492;9.184;2024-02-04T08:36:45;95.80;;;37.30;;
1296;SDS011;641;48.492;9.184;2024-02-04T08:39:11;96.30;;;37.87;;
1296;SDS011;641;48.492;9.184;2024-02-04T08:41:36;96.27;;;38.60;;
1296;SDS011;641;48.492;9.184;2024-02-04T08:44:02;97.90;;;39.47;;
1296;SDS011;641;48.492;9.184;2024-02-04T08:46:27;96.40;;;39.13;;
1296;SDS011;641;48.492;9.184;2024-02-04T08:48:53;96.30;;;37.90;;
1296;SDS011;641;48.492;9.184;2024-02-04T08:51:19;96.37;;;37.07;;
1296;SDS011;641;48.492;9.184;2024-02-04T08:53:44;97.97;;;36.60;;
1296;SDS011;641;48.492;9.184;2024-02-04T08:56:10;97.57;;;36.90;;
1296;SDS011;641;48.492;9.184;2024-02-04T08:58:35;96.10;;;37.50;;
1296;SDS011;641;48.492;9.184;2024-02-04T09:01:02;96.17;;;36.70;;
1296;SDS011;641;48.492;9.184;2024-02-04T09:03:28;96.63;;;36.37;;
1296;SDS011;641;48.492;9.184;2024-02-04T09:05:54;98.70;;;39.10;;
1296;SDS011;641;48.492;9.184;2024-02-04T09:08:20;97.50;;;39.40;;
1296;SDS011;641;48.492;9.184;2024-02-04T09:10:46;96.10;;;37.87;;
1296;SDS011;641;48.492;9.184;2024-02-04T09:13:11;95.40;;;35.60;;
1296;SDS011;641;48.492;9.184;2024-02-04T09:15:37;97.67;;;41.40;;
1296;SDS011;641;48.492;9.184;2024-02-04T09:18:02;99.30;;;40.70;;
1296;SDS011;641;48.492;9.184;2024-02-04T09:20:28;96.50;;;38.57;;
1296;SDS011;641;48.492;9.184;2024-02-04T09:22:54;102.73;;;47.07;;
1296;SDS011;641;48.492;9.184;2024-02-04T09:25:19;101.57;;;49.27;;
1296;SDS011;641;48.492;9.184;2024-02-04T09:27:45;96.47;;;38.03;;
1296;SDS011;641;48.492;9.184;2024-02-04T09:30:10;96.00;;;38.30;;
1296;SDS011;641;48.492;9.184;2024-02-04T09:32:37;97.37;;;38.67;;
1296;SDS011;641;48.492;9.184;2024-02-04T09:35:02;96.90;;;39.30;;
1296;SDS011;641;48.492;9.184;2024-02-04T09:37:28;96.97;;;40.60;;
1296;SDS011;641;48.492;9.184;2024-02-04T09:39:54;99.03;;;44.57;;
1296;SDS011;641;48.492;9.184;2024-02-04T09:42:20;98.83;;;39.87;;
1296;SDS011;641;48.492;9.184;2024-02-04T09:44:49;98.20;;;39.30;;
1296;SDS011;641;48.492;9.184;2024-02-04T09:47:15;97.60;;;41.07;;
1296;SDS011;641;48.492;9.184;2024-02-04T09:49:41;97.97;;;41.70;;
1296;SDS011;641;48.492;9.184;2024-02-04T09:52:08;97.07;;;40.13;;
1296;SDS011;641;48.492;9.184;2024-02-04T09:54:44;98.40;;;43.83;;
1296;SDS011;641;48.492;9.184;2024-02-04T09:57:10;96.70;;;40.23;;
1296;SDS011;641;48.492;9.184;2024-02-04T09:59:37;98.17;;;44.87;;
1296;SDS011;641;48.492;9.184;2024-02-04T10:02:03;101.27;;;47.53;;
1296;SDS011;641;48.492;9.184;2024-02-04T10:04:30;98.10;;;44.73;;
1296;SDS011;641;48.492;9.184;2024-02-04T10:06:56;100.23;;;46.93;;
1296;SDS011;641;48.492;9.184;2024-02-04T10:09:21;100.73;;;45.53;;
1296;SDS011;641;48.492;9.184;2024-02-04T10:11:47;97.90;;;43.77;;
1296;SDS011;641;48.492;9.184;2024-02-04T10:14:13;97.87;;;42.63;;
1296;SDS011;641;48.492;9.184;2024-02-04T10:16:40;98.77;;;43.63;;
1296;SDS011;641;48.492;9.184;2024-02-04T10:19:06;96.20;;;37.43;;
1296;SDS011;641;48.492;9.184;2024-02-04T10:21:32;99.83;;;48.53;;
1296;SDS011;641;48.492;9.184;2024-02-04T10:23:57;98.80;;;46.13;;
1296;SDS011;641;48.492;9.184;2024-02-04T10:26:23;98.43;;;46.03;;
1296;SDS011;641;48.492;9.184;2024-02-04T10:28:57;98.67;;;46.43;;
1296;SDS011;641;48.492;9.184;2024-02-04T10:31:23;99.67;;;48.53;;
1296;SDS011;641;48.492;9.184;2024-02-04T10:33:50;98.00;;;43.43;;
1296;SDS011;641;48.492;9.184;2024-02-04T10:36:16;100.43;;;48.37;;
1296;SDS011;641;48.492;9.184;2024-02-04T10:38:42;99.43;;;45.83;;
1296;SDS011;641;48.492;9.184;2024-02-04T10:41:08;99.97;;;45.33;;
1296;SDS011;641;48.492;9.184;2024-02-04T10:43:40;96.97;;;40.80;;
1296;SDS011;641;48.492;9.184;2024-02-04T10:46:18;96.20;;;39.80;;
1296;SDS011;641;48.492;9.184;2024-02-04T10:48:45;98.50;;;45.03;;
1296;SDS011;641;48.492;9.184;2024-02-04T10:51:20;97.67;;;43.13;;
1296;SDS011;641;48.492;9.184;2024-02-04T10:53:50;97.60;;;38.50;;
1296;SDS011;641;48.492;9.184;2024-02-04T10:56:19;98.73;;;41.90;;
1296;SDS011;641;48.492;9.184;2024-02-04T10:58:47;96.07;;;37.70;;
1296;SDS011;641;48.492;9.184;2024-02-04T11:01:13;96.53;;;39.50;;
1296;SDS011;641;48.492;9.184;2024-02-04T11:03:40;95.80;;;38.07;;
1296;SDS011;641;48.492;9.184;2024-02-04T11:06:07;97.60;;;39.73;;
1296;SDS011;641;48.492;9.184;2024-02-04T11:08:33;97.53;;;37.63;;
1296;SDS011;641;48.492;9.184;2024-02-04T11:11:00;96.87;;;40.17;;
1296;SDS011;641;48.492;9.184;2024-02-04T11:13:25;97.07;;;39.20;;
1296;SDS011;641;48.492;9.184;2024-02-04T11:15:53;95.00;;;34.37;;
1296;SDS011;641;48.492;9.184;2024-02-04T11:18:42;96.57;;;38.43;;
1296;SDS011;641;48.492;9.184;2024-02-04T11:26:38;96.20;;;37.67;;
1296;SDS011;641;48.492;9.184;2024-02-04T11:29:06;96.40;;;38.10;;
1296;SDS011;641;48.492;9.184;2024-02-04T11:31:34;98.03;;;39.40;;
1296;SDS011;641;48.492;9.184;2024-02-04T11:34:05;96.47;;;39.37;;
1296;SDS011;641;48.492;9.184;2024-02-04T11:36:37;102.13;;;35.33;;
1296;SDS011;641;48.492;9.184;2024-02-04T11:39:12;97.97;;;38.80;;
1296;SDS011;641;48.492;9.184;2024-02-04T11:41:44;95.40;;;34.70;;
1296;SDS011;641;48.492;9.184;2024-02-04T11:44:11;96.87;;;36.00;;
1296;SDS011;641;48.492;9.184;2024-02-04T11:46:37;96.57;;;38.50;;
1296;SDS011;641;48.492;9.184;2024-02-04T11:49:03;96.50;;;34.87;;
1296;SDS011;641;48.492;9.184;2024-02-04T11:51:39;99.30;;;40.83;;
1296;SDS011;641;48.492;9.184;2024-02-04T11:54:06;97.00;;;39.67;;
1296;SDS011;641;48.492;9.184;2024-02-04T11:56:32;99.00;;;44.83;;
1296;SDS011;641;48.492;9.184;2024-02-04T11:58:58;99.97;;;47.67;;
1296;SDS011;641;48.492;9.184;2024-02-04T12:01:24;98.97;;;45.87;;
1296;SDS011;641;48.492;9.184;2024-02-04T12:03:50;99.83;;;44.90;;
1296;SDS011;641;48.492;9.184;2024-02-04T12:06:17;98.87;;;43.53;;
1296;SDS011;641;48.492;9.184;2024-02-04T12:08:42;101.47;;;46.10;;
1296;SDS011;641;48.492;9.184;2024-02-04T12:11:08;99.03;;;44.20;;
1296;SDS011;641;48.492;9.184;2024-02-04T12:13:34;99.27;;;46.90;;
1296;SDS011;641;48.492;9.184;2024-02-04T12:16:03;1999.90;;;999.90;;
1296;SDS011;641;48.492;9.184;2024-02-04T12:18:31;1999.90;;;999.90;;
1296;SDS011;641;48.492;9.184;2024-02-04T12:20:57;1999.90;;;999.90;;
1296;SDS011;641;48.492;9.184;2024-02-04T12:23:23;1999.90;;;999.90;;
1296;SDS011;641;48.492;9.184;2024-02-04T12:25:48;1999.90;;;999.90;;
1296;SDS011;641;48.492;9.184;2024-02-04T12:28:14;1999.90;;;999.90;;
1296;SDS011;641;48.492;9.184;2024-02-04T12:30:40;1999.90;;;999.90;;
1296;SDS011;641;48.492;9.184;2024-02-04T12:33:06;1999.90;;;999.90;;
1296;SDS011;641;48.492;9.184;2024-02-04T12:35:32;1999.90;;;999.90;;
1296;SDS011;641;48.492;9.184;2024-02-04T12:37:58;1999.90;;;999.90;;
1296;SDS011;641;48.492;9.184;2024-02-04T12:40:25;1999.90;;;999.90;;
1296;SDS011;641;48.492;9.184;2024-02-04T12:43:00;1999.90;;;999.90;;
1296;SDS011;641;48.492;9.184;2024-02-04T12:45:27;1999.90;;;999.90;;
1296;SDS011;641;48.492;9.184;2024-02-04T12:47:55;1999.90;;;999.90;;
1296;SDS011;641;48.492;9.184;2024-02-04T12:50:21;1999.90;;;999.90;;
1296;SDS011;641;48.492;9.184;2024-02-04T12:53:00;1999.90;;;999.90;;
1296;SDS011;641;48.492;9.184;2024-02-04T12:55:28;1366.40;;;680.47;;
1296;SDS011;641;48.492;9.184;2024-02-04T12:58:06;1999.90;;;999.90;;
1296;SDS011;641;48.492;9.184;2024-02-04T13:00:34;98.70;;;43.20;;
1296;SDS011;641;48.492;9.184;2024-02-04T13:03:01;99.97;;;45.00;;
1296;SDS011;641;48.492;9.184;2024-02-04T13:05:27;99.43;;;43.97;;
1296;SDS011;641;48.492;9.184;2024-02-04T13:07:56;1366.50;;;681.07;;
1296;SDS011;641;48.492;9.184;2024-02-04T13:10:25;99.43;;;44.60;;
1296;SDS011;641;48.492;9.184;2024-02-04T13:12:58;1366.63;;;681.40;;
1296;SDS011;641;48.492;9.184;2024-02-04T13:15:25;98.93;;;44.70;;
1296;SDS011;641;48.492;9.184;2024-02-04T13:17:54;1366.20;;;680.10;;
1296;SDS011;641;48.492;9.184;2024-02-04T13:20:20;99.07;;;40.90;;
1296;SDS011;641;48.492;9.184;2024-02-04T13:22:46;101.20;;;42.30;;
1296;SDS011;641;48.492;9.184;2024-02-04T13:25:12;99.17;;;44.07;;
1296;SDS011;641;48.492;9.184;2024-02-04T13:27:38;1999.90;;;999.90;;
1296;SDS011;641;48.492;9.184;2024-02-04T13:30:04;1999.90;;;999.90;;
1296;SDS011;641;48.492;9.184;2024-02-04T13:32:35;1366.07;;;680.00;;
1296;SDS011;641;48.492;9.184;2024-02-04T13:35:00;97.37;;;39.93;;
1296;SDS011;641;48.492;9.184;2024-02-04T13:37:26;98.83;;;41.03;;
1296;SDS011;641;48.492;9.184;2024-02-04T13:39:51;99.07;;;43.67;;
1296;SDS011;641;48.492;9.184;2024-02-04T13:42:17;1999.90;;;999.90;;
1296;SDS011;641;48.492;9.184;2024-02-04T13:44:43;96.33;;;35.20;;
1296;SDS011;641;48.492;9.184;2024-02-04T13:47:08;97.40;;;38.20;;
1296;SDS011;641;48.492;9.184;2024-02-04T13:49:34;97.27;;;40.33;;
1296;SDS011;641;48.492;9.184;2024-02-04T13:51:59;99.60;;;44.90;;
1296;SDS011;641;48.492;9.184;2024-02-04T13:54:25;1366.60;;;681.73;;
1296;SDS011;641;48.492;9.184;2024-02-04T13:56:51;1999.90;;;999.90;;
1296;SDS011;641;48.492;9.184;2024-02-04T13:59:16;1366.17;;;680.70;;
1296;SDS011;641;48.492;9.184;2024-02-04T14:01:42;1366.87;;;682.73;;
1296;SDS011;641;48.492;9.184;2024-02-04T14:04:08;1999.90;;;999.90;;
1296;SDS011;641;48.492;9.184;2024-02-04T14:06:35;1999.90;;;999.90;;
1296;SDS011;641;48.492;9.184;2024-02-04T14:09:00;1365.37;;;678.57;;
1296;SDS011;641;48.492;9.184;2024-02-04T14:11:26;1999.90;;;999.90;;
1296;SDS011;641;48.492;9.184;2024-02-04T14:13:52;1999.90;;;999.90;;
1296;SDS011;641;48.492;9.184;2024-02-04T14:16:18;1999.90;;;999.90;;
1296;SDS011;641;48.492;9.184;2024-02-04T14:18:43;1999.90;;;999.90;;
1296;SDS011;641;48.492;9.184;2024-02-04T14:21:11;1365.90;;;679.67;;
1296;SDS011;641;48.492;9.184;2024-02-04T14:23:39;1999.90;;;999.90;;
1296;SDS011;641;48.492;9.184;2024-02-04T14:26:05;1366.33;;;680.97;;
1296;SDS011;641;48.492;9.184;2024-02-04T14:28:33;1366.20;;;680.77;;
1296;SDS011;641;48.492;9.184;2024-02-04T14:31:06;97.97;;;40.37;;
1296;SDS011;641;48.492;9.184;2024-02-04T14:33:32;99.63;;;46.47;;
1296;SDS011;641;48.492;9.184;2024-02-04T14:35:58;99.00;;;42.23;;
1296;SDS011;641;48.492;9.184;2024-02-04T14:38:25;98.43;;;43.90;;
1296;SDS011;641;48.492;9.184;2024-02-04T14:40:51;98.00;;;41.57;;
1296;SDS011;641;48.492;9.184;2024-02-04T14:43:16;1366.07;;;680.40;;
1296;SDS011;641;48.492;9.184;2024-02-04T14:45:43;1366.23;;;680.70;;
1296;SDS011;641;48.492;9.184;2024-02-04T14:48:08;1366.57;;;681.80;;
1296;SDS011;641;48.492;9.184;2024-02-04T14:50:34;99.40;;;44.13;;
1296;SDS011;641;48.492;9.184;2024-02-04T14:53:00;100.47;;;44.43;;
1296;SDS011;641;48.492;9.184;2024-02-04T14:55:25;99.37;;;44.57;;
1296;SDS011;641;48.492;9.184;2024-02-04T14:57:52;100.73;;;45.97;;
1296;SDS011;641;48.492;9.184;2024-02-04T15:00:17;98.97;;;45.37;;